sensor_id;sensor_type;location;lat;lon;timestamp;temperature;humidity
23335;DHT22;11839;48.598;8.870;2023-06-14T00:02:25;14.60;83.70
23335;DHT22;11839;48.598;8.870;2023-06-14T00:04:52;14.50;84.40
23335;DHT22;11839;48.598;8.870;2023-06-14T00:07:33;14.40;84.60
23335;DHT22;11839;48.598;8.870;2023-06-14T00:10:00;14.30;85.40
23335;DHT22;11839;48.598;8.870;2023-06-14T00:12:27;14.30;85.80
23335;DHT22;11839;48.598;8.870;2023-06-14T00:14:54;14.30;86.30
23335;DHT22;11839;48.598;8.870;2023-06-14T00:17:21;14.40;85.90
23335;DHT22;11839;48.598;8.870;2023-06-14T00:19:47;14.30;85.80
23335;DHT22;11839;48.598;8.870;2023-06-14T00:22:15;14.20;87.30
23335;DHT22;11839;48.598;8.870;2023-06-14T00:24:43;14.20;87.30
23335;DHT22;11839;48.598;8.870;2023-06-14T00:27:10;14.10;87.20
23335;DHT22;11839;48.598;8.870;2023-06-14T00:29:36;13.90;87.80
23335;DHT22;11839;48.598;8.870;2023-06-14T00:32:04;13.90;89.00
23335;DHT22;11839;48.598;8.870;2023-06-14T00:34:31;13.80;89.40
23335;DHT22;11839;48.598;8.870;2023-06-14T00:36:58;13.70;90.00
23335;DHT22;11839;48.598;8.870;2023-06-14T00:39:24;13.80;89.80
23335;DHT22;11839;48.598;8.870;2023-06-14T00:41:53;13.70;90.20
23335;DHT22;11839;48.598;8.870;2023-06-14T00:44:20;13.40;90.60
23335;DHT22;11839;48.598;8.870;2023-06-14T00:46:47;13.30;90.60
23335;DHT22;11839;48.598;8.870;2023-06-14T00:49:14;13.30;90.60
23335;DHT22;11839;48.598;8.870;2023-06-14T00:51:42;13.50;90.60
23335;DHT22;11839;48.598;8.870;2023-06-14T00:54:08;13.60;90.60
23335;DHT22;11839;48.598;8.870;2023-06-14T00:56:36;13.50;90.70
23335;DHT22;11839;48.598;8.870;2023-06-14T00:59:04;13.70;90.20
23335;DHT22;11839;48.598;8.870;2023-06-14T01:01:32;13.80;90.00
23335;DHT22;11839;48.598;8.870;2023-06-14T01:03:59;13.80;90.00
23335;DHT22;11839;48.598;8.870;2023-06-14T01:06:31;13.90;89.90
23335;DHT22;11839;48.598;8.870;2023-06-14T01:09:06;13.90;90.10
23335;DHT22;11839;48.598;8.870;2023-06-14T01:11:39;13.30;90.60
23335;DHT22;11839;48.598;8.870;2023-06-14T01:14:10;13.30;90.60
23335;DHT22;11839;48.598;8.870;2023-06-14T01:16:39;13.30;90.60
23335;DHT22;11839;48.598;8.870;2023-06-14T01:19:10;13.50;90.60
23335;DHT22;11839;48.598;8.870;2023-06-14T01:21:39;13.40;90.60
23335;DHT22;11839;48.598;8.870;2023-06-14T01:24:09;13.50;90.60
23335;DHT22;11839;48.598;8.870;2023-06-14T01:26:37;13.50;90.60
23335;DHT22;11839;48.598;8.870;2023-06-14T01:29:06;13.40;90.60
23335;DHT22;11839;48.598;8.870;2023-06-14T01:31:34;13.40;91.10
23335;DHT22;11839;48.598;8.870;2023-06-14T01:34:07;13.40;91.10
23335;DHT22;11839;48.598;8.870;2023-06-14T01:36:35;13.40;91.30
23335;DHT22;11839;48.598;8.870;2023-06-14T01:39:04;13.40;91.10
23335;DHT22;11839;48.598;8.870;2023-06-14T01:41:33;13.50;91.10
23335;DHT22;11839;48.598;8.870;2023-06-14T01:44:01;13.50;91.30
23335;DHT22;11839;48.598;8.870;2023-06-14T01:46:28;13.50;91.30
23335;DHT22;11839;48.598;8.870;2023-06-14T01:48:55;13.50;91.30
23335;DHT22;11839;48.598;8.870;2023-06-14T01:51:22;13.30;91.80
23335;DHT22;11839;48.598;8.870;2023-06-14T01:53:49;13.30;91.70
23335;DHT22;11839;48.598;8.870;2023-06-14T01:56:15;13.40;91.80
23335;DHT22;11839;48.598;8.870;2023-06-14T01:58:44;13.40;91.60
23335;DHT22;11839;48.598;8.870;2023-06-14T02:01:11;13.30;91.80
23335;DHT22;11839;48.598;8.870;2023-06-14T02:03:38;13.20;92.20
23335;DHT22;11839;48.598;8.870;2023-06-14T02:06:05;13.10;92.50
23335;DHT22;11839;48.598;8.870;2023-06-14T02:08:32;12.90;92.70
23335;DHT22;11839;48.598;8.870;2023-06-14T02:10:58;12.70;93.20
23335;DHT22;11839;48.598;8.870;2023-06-14T02:13:25;12.60;93.70
23335;DHT22;11839;48.598;8.870;2023-06-14T02:15:54;12.60;93.90
23335;DHT22;11839;48.598;8.870;2023-06-14T02:18:20;12.50;94.00
23335;DHT22;11839;48.598;8.870;2023-06-14T02:20:47;12.60;94.10
23335;DHT22;11839;48.598;8.870;2023-06-14T02:23:14;12.60;93.90
23335;DHT22;11839;48.598;8.870;2023-06-14T02:25:41;12.60;94.10
23335;DHT22;11839;48.598;8.870;2023-06-14T02:28:10;12.70;93.60
23335;DHT22;11839;48.598;8.870;2023-06-14T02:30:37;12.90;93.60
23335;DHT22;11839;48.598;8.870;2023-06-14T02:33:06;13.30;93.00
23335;DHT22;11839;48.598;8.870;2023-06-14T02:35:33;13.30;92.50
23335;DHT22;11839;48.598;8.870;2023-06-14T02:38:00;13.20;92.80
23335;DHT22;11839;48.598;8.870;2023-06-14T02:40:26;13.10;92.90
23335;DHT22;11839;48.598;8.870;2023-06-14T02:42:53;12.90;93.10
23335;DHT22;11839;48.598;8.870;2023-06-14T02:45:20;12.50;93.60
23335;DHT22;11839;48.598;8.870;2023-06-14T02:47:48;12.40;94.10
23335;DHT22;11839;48.598;8.870;2023-06-14T02:50:17;12.10;94.70
23335;DHT22;11839;48.598;8.870;2023-06-14T02:52:43;12.00;95.00
23335;DHT22;11839;48.598;8.870;2023-06-14T02:55:11;11.90;95.30
23335;DHT22;11839;48.598;8.870;2023-06-14T02:57:37;12.00;95.40
23335;DHT22;11839;48.598;8.870;2023-06-14T03:00:06;12.00;95.30
23335;DHT22;11839;48.598;8.870;2023-06-14T03:02:35;12.00;95.50
23335;DHT22;11839;48.598;8.870;2023-06-14T03:05:02;12.20;95.40
23335;DHT22;11839;48.598;8.870;2023-06-14T03:07:30;12.40;95.20
23335;DHT22;11839;48.598;8.870;2023-06-14T03:09:57;11.90;95.70
23335;DHT22;11839;48.598;8.870;2023-06-14T03:12:23;12.10;96.00
23335;DHT22;11839;48.598;8.870;2023-06-14T03:14:51;12.30;95.40
23335;DHT22;11839;48.598;8.870;2023-06-14T03:17:18;12.40;95.30
23335;DHT22;11839;48.598;8.870;2023-06-14T03:19:46;12.40;95.20
23335;DHT22;11839;48.598;8.870;2023-06-14T03:22:12;12.70;95.00
23335;DHT22;11839;48.598;8.870;2023-06-14T03:24:41;12.70;94.90
23335;DHT22;11839;48.598;8.870;2023-06-14T03:27:08;12.80;94.80
23335;DHT22;11839;48.598;8.870;2023-06-14T03:29:35;12.80;94.60
23335;DHT22;11839;48.598;8.870;2023-06-14T03:32:03;12.90;94.40
23335;DHT22;11839;48.598;8.870;2023-06-14T03:34:30;12.70;94.70
23335;DHT22;11839;48.598;8.870;2023-06-14T03:36:57;12.80;94.60
23335;DHT22;11839;48.598;8.870;2023-06-14T03:39:24;12.80;94.50
23335;DHT22;11839;48.598;8.870;2023-06-14T03:41:52;12.70;94.50
23335;DHT22;11839;48.598;8.870;2023-06-14T03:44:19;12.60;94.60
23335;DHT22;11839;48.598;8.870;2023-06-14T03:46:46;12.40;95.10
23335;DHT22;11839;48.598;8.870;2023-06-14T03:49:13;12.20;95.40
23335;DHT22;11839;48.598;8.870;2023-06-14T03:51:42;12.10;95.80
23335;DHT22;11839;48.598;8.870;2023-06-14T03:54:09;12.10;96.10
23335;DHT22;11839;48.598;8.870;2023-06-14T03:56:36;12.30;95.70
23335;DHT22;11839;48.598;8.870;2023-06-14T03:59:04;12.40;95.60
23335;DHT22;11839;48.598;8.870;2023-06-14T04:01:31;12.70;95.00
23335;DHT22;11839;48.598;8.870;2023-06-14T04:03:59;12.60;95.20
23335;DHT22;11839;48.598;8.870;2023-06-14T04:06:26;12.30;95.60
23335;DHT22;11839;48.598;8.870;2023-06-14T04:08:58;12.30;95.80
23335;DHT22;11839;48.598;8.870;2023-06-14T04:11:29;12.40;95.90
23335;DHT22;11839;48.598;8.870;2023-06-14T04:13:57;12.40;95.90
23335;DHT22;11839;48.598;8.870;2023-06-14T04:16:26;12.30;95.90
23335;DHT22;11839;48.598;8.870;2023-06-14T04:18:54;12.10;96.20
23335;DHT22;11839;48.598;8.870;2023-06-14T04:21:21;12.20;96.20
23335;DHT22;11839;48.598;8.870;2023-06-14T04:23:49;12.20;96.10
23335;DHT22;11839;48.598;8.870;2023-06-14T04:26:18;12.40;96.10
23335;DHT22;11839;48.598;8.870;2023-06-14T04:28:46;12.50;95.90
23335;DHT22;11839;48.598;8.870;2023-06-14T04:31:12;12.40;95.90
23335;DHT22;11839;48.598;8.870;2023-06-14T04:33:41;12.40;96.00
23335;DHT22;11839;48.598;8.870;2023-06-14T04:36:11;12.40;96.00
23335;DHT22;11839;48.598;8.870;2023-06-14T04:38:38;12.40;96.50
23335;DHT22;11839;48.598;8.870;2023-06-14T04:41:05;12.40;96.70
23335;DHT22;11839;48.598;8.870;2023-06-14T04:43:32;12.60;96.50
23335;DHT22;11839;48.598;8.870;2023-06-14T04:46:04;12.80;95.90
23335;DHT22;11839;48.598;8.870;2023-06-14T04:48:36;12.90;95.80
23335;DHT22;11839;48.598;8.870;2023-06-14T04:51:04;13.20;95.40
23335;DHT22;11839;48.598;8.870;2023-06-14T04:53:31;13.40;94.90
23335;DHT22;11839;48.598;8.870;2023-06-14T04:55:58;13.50;94.90
23335;DHT22;11839;48.598;8.870;2023-06-14T04:58:26;13.70;94.80
23335;DHT22;11839;48.598;8.870;2023-06-14T05:00:53;14.00;94.20
23335;DHT22;11839;48.598;8.870;2023-06-14T05:03:21;14.60;93.60
23335;DHT22;11839;48.598;8.870;2023-06-14T05:05:49;14.90;92.80
23335;DHT22;11839;48.598;8.870;2023-06-14T05:08:17;15.40;91.70
23335;DHT22;11839;48.598;8.870;2023-06-14T05:10:44;15.70;91.50
23335;DHT22;11839;48.598;8.870;2023-06-14T05:13:11;15.80;91.20
23335;DHT22;11839;48.598;8.870;2023-06-14T05:15:38;16.30;90.50
23335;DHT22;11839;48.598;8.870;2023-06-14T05:18:04;16.50;90.10
23335;DHT22;11839;48.598;8.870;2023-06-14T05:20:33;16.70;89.40
23335;DHT22;11839;48.598;8.870;2023-06-14T05:23:02;16.90;88.50
23335;DHT22;11839;48.598;8.870;2023-06-14T05:25:30;16.80;88.30
23335;DHT22;11839;48.598;8.870;2023-06-14T05:27:57;16.90;88.30
23335;DHT22;11839;48.598;8.870;2023-06-14T05:30:24;17.20;87.60
23335;DHT22;11839;48.598;8.870;2023-06-14T05:32:51;17.50;86.90
23335;DHT22;11839;48.598;8.870;2023-06-14T05:35:18;17.80;85.30
23335;DHT22;11839;48.598;8.870;2023-06-14T05:37:47;18.00;84.20
23335;DHT22;11839;48.598;8.870;2023-06-14T05:40:14;18.20;83.20
23335;DHT22;11839;48.598;8.870;2023-06-14T05:42:43;18.40;82.10
23335;DHT22;11839;48.598;8.870;2023-06-14T05:45:11;18.60;80.40
23335;DHT22;11839;48.598;8.870;2023-06-14T05:47:37;18.80;80.30
23335;DHT22;11839;48.598;8.870;2023-06-14T05:50:05;19.00;79.90
23335;DHT22;11839;48.598;8.870;2023-06-14T05:52:32;19.00;78.90
23335;DHT22;11839;48.598;8.870;2023-06-14T05:54:59;18.90;79.20
23335;DHT22;11839;48.598;8.870;2023-06-14T05:57:26;18.60;79.60
23335;DHT22;11839;48.598;8.870;2023-06-14T05:59:55;18.80;80.30
23335;DHT22;11839;48.598;8.870;2023-06-14T06:02:21;19.30;79.90
23335;DHT22;11839;48.598;8.870;2023-06-14T06:04:49;19.60;79.50
23335;DHT22;11839;48.598;8.870;2023-06-14T06:07:16;19.90;78.80
23335;DHT22;11839;48.598;8.870;2023-06-14T06:09:43;19.60;79.70
23335;DHT22;11839;48.598;8.870;2023-06-14T06:12:10;19.60;78.90
23335;DHT22;11839;48.598;8.870;2023-06-14T06:14:36;19.20;78.80
23335;DHT22;11839;48.598;8.870;2023-06-14T06:17:05;19.00;80.10
23335;DHT22;11839;48.598;8.870;2023-06-14T06:19:32;18.90;79.30
23335;DHT22;11839;48.598;8.870;2023-06-14T06:21:59;18.80;80.10
23335;DHT22;11839;48.598;8.870;2023-06-14T06:24:26;18.90;79.50
23335;DHT22;11839;48.598;8.870;2023-06-14T06:26:53;19.10;78.90
23335;DHT22;11839;48.598;8.870;2023-06-14T06:29:20;19.20;77.10
23335;DHT22;11839;48.598;8.870;2023-06-14T06:31:47;18.70;77.00
23335;DHT22;11839;48.598;8.870;2023-06-14T06:34:15;18.90;78.40
23335;DHT22;11839;48.598;8.870;2023-06-14T06:36:42;19.30;76.60
23335;DHT22;11839;48.598;8.870;2023-06-14T06:39:09;19.60;75.70
23335;DHT22;11839;48.598;8.870;2023-06-14T06:41:37;19.40;75.20
23335;DHT22;11839;48.598;8.870;2023-06-14T06:44:05;19.60;75.10
23335;DHT22;11839;48.598;8.870;2023-06-14T06:46:32;19.60;75.00
23335;DHT22;11839;48.598;8.870;2023-06-14T06:48:59;19.80;75.20
23335;DHT22;11839;48.598;8.870;2023-06-14T06:51:27;19.60;75.20
23335;DHT22;11839;48.598;8.870;2023-06-14T06:53:54;19.70;75.70
23335;DHT22;11839;48.598;8.870;2023-06-14T06:56:21;19.80;75.20
23335;DHT22;11839;48.598;8.870;2023-06-14T06:58:49;19.70;75.20
23335;DHT22;11839;48.598;8.870;2023-06-14T07:01:16;20.10;75.20
23335;DHT22;11839;48.598;8.870;2023-06-14T07:03:44;20.40;73.80
23335;DHT22;11839;48.598;8.870;2023-06-14T07:06:11;20.70;73.30
23335;DHT22;11839;48.598;8.870;2023-06-14T07:08:39;20.60;74.50
23335;DHT22;11839;48.598;8.870;2023-06-14T07:11:06;21.10;73.80
23335;DHT22;11839;48.598;8.870;2023-06-14T07:13:33;21.20;72.90
23335;DHT22;11839;48.598;8.870;2023-06-14T07:16:00;21.50;73.00
23335;DHT22;11839;48.598;8.870;2023-06-14T07:18:28;21.90;72.90
23335;DHT22;11839;48.598;8.870;2023-06-14T07:20:55;22.50;71.70
23335;DHT22;11839;48.598;8.870;2023-06-14T07:23:22;22.60;69.80
23335;DHT22;11839;48.598;8.870;2023-06-14T07:25:50;22.10;70.40
23335;DHT22;11839;48.598;8.870;2023-06-14T07:28:17;21.80;71.70
23335;DHT22;11839;48.598;8.870;2023-06-14T07:30:44;21.70;70.40
23335;DHT22;11839;48.598;8.870;2023-06-14T07:33:11;21.60;70.80
23335;DHT22;11839;48.598;8.870;2023-06-14T07:35:39;21.80;70.80
23335;DHT22;11839;48.598;8.870;2023-06-14T07:38:05;21.90;69.50
23335;DHT22;11839;48.598;8.870;2023-06-14T07:40:32;21.60;70.10
23335;DHT22;11839;48.598;8.870;2023-06-14T07:43:01;21.80;70.40
23335;DHT22;11839;48.598;8.870;2023-06-14T07:45:28;21.50;71.10
23335;DHT22;11839;48.598;8.870;2023-06-14T07:47:55;22.00;71.10
23335;DHT22;11839;48.598;8.870;2023-06-14T07:50:22;21.70;71.00
23335;DHT22;11839;48.598;8.870;2023-06-14T07:52:49;22.10;71.10
23335;DHT22;11839;48.598;8.870;2023-06-14T07:55:15;21.90;70.50
23335;DHT22;11839;48.598;8.870;2023-06-14T07:57:43;21.60;70.60
23335;DHT22;11839;48.598;8.870;2023-06-14T08:00:13;22.00;70.60
23335;DHT22;11839;48.598;8.870;2023-06-14T08:02:41;21.70;70.60
23335;DHT22;11839;48.598;8.870;2023-06-14T08:05:09;21.60;71.50
23335;DHT22;11839;48.598;8.870;2023-06-14T08:07:36;22.20;70.70
23335;DHT22;11839;48.598;8.870;2023-06-14T08:10:04;22.30;70.50
23335;DHT22;11839;48.598;8.870;2023-06-14T08:12:31;22.70;69.60
23335;DHT22;11839;48.598;8.870;2023-06-14T08:14:59;23.00;68.80
23335;DHT22;11839;48.598;8.870;2023-06-14T08:17:27;23.30;68.70
23335;DHT22;11839;48.598;8.870;2023-06-14T08:19:54;23.30;68.00
23335;DHT22;11839;48.598;8.870;2023-06-14T08:22:22;23.10;67.80
23335;DHT22;11839;48.598;8.870;2023-06-14T08:24:50;23.10;67.60
23335;DHT22;11839;48.598;8.870;2023-06-14T08:27:16;23.60;68.10
23335;DHT22;11839;48.598;8.870;2023-06-14T08:29:44;23.60;66.10
23335;DHT22;11839;48.598;8.870;2023-06-14T08:32:11;23.00;68.00
23335;DHT22;11839;48.598;8.870;2023-06-14T08:34:39;23.50;66.90
23335;DHT22;11839;48.598;8.870;2023-06-14T08:37:06;23.50;65.90
23335;DHT22;11839;48.598;8.870;2023-06-14T08:39:33;23.40;64.00
23335;DHT22;11839;48.598;8.870;2023-06-14T08:42:01;23.30;66.90
23335;DHT22;11839;48.598;8.870;2023-06-14T08:44:28;23.40;62.70
23335;DHT22;11839;48.598;8.870;2023-06-14T08:46:56;23.50;62.90
23335;DHT22;11839;48.598;8.870;2023-06-14T08:49:25;23.50;62.70
23335;DHT22;11839;48.598;8.870;2023-06-14T08:52:01;23.50;63.00
23335;DHT22;11839;48.598;8.870;2023-06-14T08:54:29;23.90;63.40
23335;DHT22;11839;48.598;8.870;2023-06-14T08:56:57;23.70;62.30
23335;DHT22;11839;48.598;8.870;2023-06-14T08:59:25;24.60;62.70
23335;DHT22;11839;48.598;8.870;2023-06-14T09:01:53;24.20;63.00
23335;DHT22;11839;48.598;8.870;2023-06-14T09:04:20;23.80;61.10
23335;DHT22;11839;48.598;8.870;2023-06-14T09:06:47;23.90;62.50
23335;DHT22;11839;48.598;8.870;2023-06-14T09:09:20;23.70;61.90
23335;DHT22;11839;48.598;8.870;2023-06-14T09:11:49;23.80;63.40
23335;DHT22;11839;48.598;8.870;2023-06-14T09:14:18;24.00;62.60
23335;DHT22;11839;48.598;8.870;2023-06-14T09:16:45;23.70;63.40
23335;DHT22;11839;48.598;8.870;2023-06-14T09:19:14;24.00;64.30
23335;DHT22;11839;48.598;8.870;2023-06-14T09:21:47;23.80;63.90
23335;DHT22;11839;48.598;8.870;2023-06-14T09:24:14;23.50;63.90
23335;DHT22;11839;48.598;8.870;2023-06-14T09:26:42;23.50;64.70
23335;DHT22;11839;48.598;8.870;2023-06-14T09:29:09;23.70;64.60
23335;DHT22;11839;48.598;8.870;2023-06-14T09:31:36;24.10;63.70
23335;DHT22;11839;48.598;8.870;2023-06-14T09:34:03;23.90;63.10
23335;DHT22;11839;48.598;8.870;2023-06-14T09:36:31;23.80;62.70
23335;DHT22;11839;48.598;8.870;2023-06-14T09:38:59;23.90;62.50
23335;DHT22;11839;48.598;8.870;2023-06-14T09:41:31;23.90;61.40
23335;DHT22;11839;48.598;8.870;2023-06-14T09:44:02;23.80;63.10
23335;DHT22;11839;48.598;8.870;2023-06-14T09:46:30;23.70;62.50
23335;DHT22;11839;48.598;8.870;2023-06-14T09:48:57;23.80;62.80
23335;DHT22;11839;48.598;8.870;2023-06-14T09:51:25;23.60;62.00
23335;DHT22;11839;48.598;8.870;2023-06-14T09:53:53;23.90;63.60
23335;DHT22;11839;48.598;8.870;2023-06-14T09:56:25;24.60;62.00
23335;DHT22;11839;48.598;8.870;2023-06-14T09:58:55;24.30;61.70
23335;DHT22;11839;48.598;8.870;2023-06-14T10:01:25;24.20;61.60
23335;DHT22;11839;48.598;8.870;2023-06-14T10:03:55;24.10;60.90
23335;DHT22;11839;48.598;8.870;2023-06-14T10:06:26;23.80;60.60
23335;DHT22;11839;48.598;8.870;2023-06-14T10:08:57;23.60;62.50
23335;DHT22;11839;48.598;8.870;2023-06-14T10:11:25;23.70;62.90
23335;DHT22;11839;48.598;8.870;2023-06-14T10:13:55;23.80;64.10
23335;DHT22;11839;48.598;8.870;2023-06-14T10:16:28;23.70;63.90
23335;DHT22;11839;48.598;8.870;2023-06-14T10:19:04;23.30;65.10
23335;DHT22;11839;48.598;8.870;2023-06-14T10:21:39;23.60;63.30
23335;DHT22;11839;48.598;8.870;2023-06-14T10:24:09;24.00;61.40
23335;DHT22;11839;48.598;8.870;2023-06-14T10:26:51;24.60;60.70
23335;DHT22;11839;48.598;8.870;2023-06-14T10:29:18;24.40;60.10
23335;DHT22;11839;48.598;8.870;2023-06-14T10:31:48;24.50;61.40
23335;DHT22;11839;48.598;8.870;2023-06-14T10:34:22;24.30;61.60
23335;DHT22;11839;48.598;8.870;2023-06-14T10:37:01;24.30;60.30
23335;DHT22;11839;48.598;8.870;2023-06-14T10:39:30;24.20;61.50
23335;DHT22;11839;48.598;8.870;2023-06-14T10:41:57;24.30;60.70
23335;DHT22;11839;48.598;8.870;2023-06-14T10:44:40;24.80;60.40
23335;DHT22;11839;48.598;8.870;2023-06-14T10:47:10;24.10;60.20
23335;DHT22;11839;48.598;8.870;2023-06-14T10:49:39;23.90;61.30
23335;DHT22;11839;48.598;8.870;2023-06-14T10:52:08;23.80;61.10
23335;DHT22;11839;48.598;8.870;2023-06-14T10:54:56;24.20;61.50
23335;DHT22;11839;48.598;8.870;2023-06-14T10:57:22;25.00;59.50
23335;DHT22;11839;48.598;8.870;2023-06-14T10:59:49;25.00;58.70
23335;DHT22;11839;48.598;8.870;2023-06-14T11:05:14;24.40;57.70
23335;DHT22;11839;48.598;8.870;2023-06-14T11:07:52;24.30;58.50
23335;DHT22;11839;48.598;8.870;2023-06-14T11:10:34;24.80;57.80
23335;DHT22;11839;48.598;8.870;2023-06-14T11:13:03;25.00;58.90
23335;DHT22;11839;48.598;8.870;2023-06-14T11:15:31;25.00;56.90
23335;DHT22;11839;48.598;8.870;2023-06-14T11:18:00;24.90;58.10
23335;DHT22;11839;48.598;8.870;2023-06-14T11:20:30;24.90;57.60
23335;DHT22;11839;48.598;8.870;2023-06-14T11:22:58;24.80;56.30
23335;DHT22;11839;48.598;8.870;2023-06-14T11:25:26;24.50;57.80
23335;DHT22;11839;48.598;8.870;2023-06-14T11:27:54;24.30;56.80
23335;DHT22;11839;48.598;8.870;2023-06-14T11:30:21;24.60;56.30
23335;DHT22;11839;48.598;8.870;2023-06-14T11:32:48;25.10;55.70
23335;DHT22;11839;48.598;8.870;2023-06-14T11:35:17;25.70;55.40
23335;DHT22;11839;48.598;8.870;2023-06-14T11:37:44;25.40;55.40
23335;DHT22;11839;48.598;8.870;2023-06-14T11:40:13;25.60;55.00
23335;DHT22;11839;48.598;8.870;2023-06-14T11:42:41;25.60;55.20
23335;DHT22;11839;48.598;8.870;2023-06-14T11:45:09;25.30;56.20
23335;DHT22;11839;48.598;8.870;2023-06-14T11:47:37;24.90;56.30
23335;DHT22;11839;48.598;8.870;2023-06-14T11:50:06;24.70;56.30
23335;DHT22;11839;48.598;8.870;2023-06-14T11:52:36;25.10;55.60
23335;DHT22;11839;48.598;8.870;2023-06-14T11:55:04;25.00;55.20
23335;DHT22;11839;48.598;8.870;2023-06-14T11:57:34;24.90;54.50
23335;DHT22;11839;48.598;8.870;2023-06-14T12:00:03;25.00;55.30
23335;DHT22;11839;48.598;8.870;2023-06-14T12:02:33;25.50;54.40
23335;DHT22;11839;48.598;8.870;2023-06-14T12:05:04;25.60;54.70
23335;DHT22;11839;48.598;8.870;2023-06-14T12:07:34;26.60;52.90
23335;DHT22;11839;48.598;8.870;2023-06-14T12:10:05;26.50;52.80
23335;DHT22;11839;48.598;8.870;2023-06-14T12:12:36;26.10;53.30
23335;DHT22;11839;48.598;8.870;2023-06-14T12:15:04;25.90;53.60
23335;DHT22;11839;48.598;8.870;2023-06-14T12:17:32;25.50;54.40
23335;DHT22;11839;48.598;8.870;2023-06-14T12:20:04;25.50;54.40
23335;DHT22;11839;48.598;8.870;2023-06-14T12:22:35;25.50;54.60
23335;DHT22;11839;48.598;8.870;2023-06-14T12:25:02;25.70;54.50
23335;DHT22;11839;48.598;8.870;2023-06-14T12:27:29;25.50;54.30
23335;DHT22;11839;48.598;8.870;2023-06-14T12:30:00;25.90;55.00
23335;DHT22;11839;48.598;8.870;2023-06-14T12:32:28;27.10;53.20
23335;DHT22;11839;48.598;8.870;2023-06-14T12:34:55;26.50;54.00
23335;DHT22;11839;48.598;8.870;2023-06-14T12:37:22;25.90;54.70
23335;DHT22;11839;48.598;8.870;2023-06-14T12:39:50;25.50;55.20
23335;DHT22;11839;48.598;8.870;2023-06-14T12:42:17;25.70;56.00
23335;DHT22;11839;48.598;8.870;2023-06-14T12:44:44;25.40;56.20
23335;DHT22;11839;48.598;8.870;2023-06-14T12:47:11;25.30;56.40
23335;DHT22;11839;48.598;8.870;2023-06-14T12:49:39;25.30;56.20
23335;DHT22;11839;48.598;8.870;2023-06-14T12:52:08;25.20;56.40
23335;DHT22;11839;48.598;8.870;2023-06-14T12:54:34;25.50;56.10
23335;DHT22;11839;48.598;8.870;2023-06-14T12:57:03;25.30;56.30
23335;DHT22;11839;48.598;8.870;2023-06-14T12:59:30;26.00;57.00
23335;DHT22;11839;48.598;8.870;2023-06-14T13:02:09;25.90;55.80
23335;DHT22;11839;48.598;8.870;2023-06-14T13:04:36;25.90;55.30
23335;DHT22;11839;48.598;8.870;2023-06-14T13:07:03;25.90;55.20
23335;DHT22;11839;48.598;8.870;2023-06-14T13:09:30;25.70;55.20
23335;DHT22;11839;48.598;8.870;2023-06-14T13:11:57;26.20;55.80
23335;DHT22;11839;48.598;8.870;2023-06-14T13:14:25;25.80;55.60
23335;DHT22;11839;48.598;8.870;2023-06-14T13:16:52;25.70;56.50
23335;DHT22;11839;48.598;8.870;2023-06-14T13:19:19;26.60;55.70
23335;DHT22;11839;48.598;8.870;2023-06-14T13:21:46;27.40;53.60
23335;DHT22;11839;48.598;8.870;2023-06-14T13:24:13;28.00;53.70
23335;DHT22;11839;48.598;8.870;2023-06-14T13:26:40;28.70;50.90
23335;DHT22;11839;48.598;8.870;2023-06-14T13:29:07;29.40;50.90
23335;DHT22;11839;48.598;8.870;2023-06-14T13:31:35;30.40;50.40
23335;DHT22;11839;48.598;8.870;2023-06-14T13:34:02;29.40;50.00
23335;DHT22;11839;48.598;8.870;2023-06-14T13:36:30;29.50;50.20
23335;DHT22;11839;48.598;8.870;2023-06-14T13:38:57;29.20;50.00
23335;DHT22;11839;48.598;8.870;2023-06-14T13:41:25;28.10;52.00
23335;DHT22;11839;48.598;8.870;2023-06-14T13:43:57;27.40;51.60
23335;DHT22;11839;48.598;8.870;2023-06-14T13:46:24;27.50;51.70
23335;DHT22;11839;48.598;8.870;2023-06-14T13:48:52;27.20;52.60
23335;DHT22;11839;48.598;8.870;2023-06-14T13:51:19;27.50;52.30
23335;DHT22;11839;48.598;8.870;2023-06-14T13:53:46;28.30;52.20
23335;DHT22;11839;48.598;8.870;2023-06-14T13:56:14;29.10;51.40
23335;DHT22;11839;48.598;8.870;2023-06-14T13:58:41;30.50;50.80
23335;DHT22;11839;48.598;8.870;2023-06-14T14:01:08;31.20;48.80
23335;DHT22;11839;48.598;8.870;2023-06-14T14:03:36;30.50;49.40
23335;DHT22;11839;48.598;8.870;2023-06-14T14:06:05;29.50;51.10
23335;DHT22;11839;48.598;8.870;2023-06-14T14:08:32;28.00;52.00
23335;DHT22;11839;48.598;8.870;2023-06-14T14:10:59;28.60;52.30
23335;DHT22;11839;48.598;8.870;2023-06-14T14:13:26;28.70;52.00
23335;DHT22;11839;48.598;8.870;2023-06-14T14:15:53;28.50;52.30
23335;DHT22;11839;48.598;8.870;2023-06-14T14:18:20;29.30;51.30
23335;DHT22;11839;48.598;8.870;2023-06-14T14:20:47;28.60;51.20
23335;DHT22;11839;48.598;8.870;2023-06-14T14:23:15;28.50;52.20
23335;DHT22;11839;48.598;8.870;2023-06-14T14:25:42;28.30;51.70
23335;DHT22;11839;48.598;8.870;2023-06-14T14:28:09;27.60;51.80
23335;DHT22;11839;48.598;8.870;2023-06-14T14:30:36;27.90;51.90
23335;DHT22;11839;48.598;8.870;2023-06-14T14:33:05;28.60;51.40
23335;DHT22;11839;48.598;8.870;2023-06-14T14:35:32;29.20;50.90
23335;DHT22;11839;48.598;8.870;2023-06-14T14:37:59;29.40;50.10
23335;DHT22;11839;48.598;8.870;2023-06-14T14:40:27;29.00;50.30
23335;DHT22;11839;48.598;8.870;2023-06-14T14:42:54;27.80;50.60
23335;DHT22;11839;48.598;8.870;2023-06-14T14:45:21;28.60;51.00
23335;DHT22;11839;48.598;8.870;2023-06-14T14:47:47;28.30;50.90
23335;DHT22;11839;48.598;8.870;2023-06-14T14:50:14;28.80;51.50
23335;DHT22;11839;48.598;8.870;2023-06-14T14:52:41;29.10;50.70
23335;DHT22;11839;48.598;8.870;2023-06-14T14:55:08;28.90;50.60
23335;DHT22;11839;48.598;8.870;2023-06-14T14:57:37;29.10;50.60
23335;DHT22;11839;48.598;8.870;2023-06-14T15:00:05;27.70;51.80
23335;DHT22;11839;48.598;8.870;2023-06-14T15:02:33;27.00;52.00
23335;DHT22;11839;48.598;8.870;2023-06-14T15:05:00;26.60;53.60
23335;DHT22;11839;48.598;8.870;2023-06-14T15:07:28;26.30;53.10
23335;DHT22;11839;48.598;8.870;2023-06-14T15:09:55;25.80;54.50
23335;DHT22;11839;48.598;8.870;2023-06-14T15:12:22;25.90;54.20
23335;DHT22;11839;48.598;8.870;2023-06-14T15:14:51;25.90;54.60
23335;DHT22;11839;48.598;8.870;2023-06-14T15:17:19;25.80;53.80
23335;DHT22;11839;48.598;8.870;2023-06-14T15:19:47;25.50;54.30
23335;DHT22;11839;48.598;8.870;2023-06-14T15:22:14;25.40;54.30
23335;DHT22;11839;48.598;8.870;2023-06-14T15:24:42;25.50;54.40
23335;DHT22;11839;48.598;8.870;2023-06-14T15:27:09;25.70;54.50
23335;DHT22;11839;48.598;8.870;2023-06-14T15:29:36;25.90;53.80
23335;DHT22;11839;48.598;8.870;2023-06-14T15:32:06;25.90;53.80
23335;DHT22;11839;48.598;8.870;2023-06-14T15:34:33;25.80;54.00
23335;DHT22;11839;48.598;8.870;2023-06-14T15:37:00;25.50;53.50
23335;DHT22;11839;48.598;8.870;2023-06-14T15:39:29;25.10;54.00